createdAt,value
2022-08-28T00:00:42.464Z,1.90
2022-08-28T00:03:10.992Z,1.90
2022-08-28T00:05:39.757Z,1.60
2022-08-28T00:08:11.998Z,1.88
2022-08-28T00:10:40.444Z,2.42
2022-08-28T00:13:10.254Z,1.98
2022-08-28T00:15:39.143Z,1.80
2022-08-28T00:18:07.918Z,1.70
2022-08-28T00:20:35.771Z,1.80
2022-08-28T00:23:02.875Z,2.03
2022-08-28T00:25:30.869Z,1.95
2022-08-28T00:28:00.658Z,2.10
2022-08-28T00:30:44.484Z,2.03
2022-08-28T00:33:15.510Z,2.20
2022-08-28T00:35:43.367Z,1.92
2022-08-28T00:38:12.314Z,1.90
2022-08-28T00:40:42.875Z,2.30
2022-08-28T00:43:22.302Z,1.75
2022-08-28T00:45:49.426Z,1.80
2022-08-28T00:48:16.290Z,1.52
2022-08-28T00:51:01.757Z,1.65
2022-08-28T00:53:33.158Z,1.50
2022-08-28T00:56:07.069Z,2.05
2022-08-28T00:58:43.289Z,1.50
2022-08-28T01:01:11.192Z,1.83
2022-08-28T01:03:38.235Z,1.77
2022-08-28T01:06:05.654Z,1.70
2022-08-28T01:08:34.163Z,1.67
2022-08-28T01:11:04.575Z,1.88
2022-08-28T01:13:32.679Z,1.88
2022-08-28T01:16:00.998Z,1.65
2022-08-28T01:18:28.930Z,1.60
2022-08-28T01:21:01.784Z,1.60
2022-08-28T01:23:51.624Z,1.73
2022-08-28T01:26:19.002Z,2.00
2022-08-28T01:28:45.987Z,1.80
2022-08-28T01:31:15.395Z,1.92
2022-08-28T01:33:43.728Z,2.50
2022-08-28T01:36:12.270Z,1.95
2022-08-28T01:38:41.762Z,2.03
2022-08-28T01:41:08.730Z,1.90
2022-08-28T01:43:35.659Z,2.08
2022-08-28T01:46:05.924Z,1.60
2022-08-28T01:48:36.448Z,2.03
2022-08-28T01:51:05.120Z,2.05
2022-08-28T01:53:33.575Z,1.73
2022-08-28T01:56:02.666Z,2.30
2022-08-28T01:58:36.015Z,1.83
2022-08-28T02:01:10.614Z,1.70
2022-08-28T02:03:37.588Z,2.28
2022-08-28T02:06:04.836Z,1.73
2022-08-28T02:08:32.197Z,2.15
2022-08-28T02:10:59.169Z,1.90
2022-08-28T02:13:26.139Z,1.90
2022-08-28T02:15:53.208Z,2.05
2022-08-28T02:18:20.981Z,1.90
2022-08-28T02:20:47.847Z,2.10
2022-08-28T02:23:15.002Z,1.95
2022-08-28T02:25:42.053Z,1.48
2022-08-28T02:28:09.474Z,2.00
2022-08-28T02:30:36.904Z,2.03
2022-08-28T02:33:04.323Z,1.92
2022-08-28T02:35:31.371Z,2.10
2022-08-28T02:38:00.572Z,2.40
2022-08-28T02:40:28.102Z,1.80
2022-08-28T02:42:55.170Z,2.00
2022-08-28T02:45:22.576Z,1.65
2022-08-28T02:47:53.019Z,1.90
2022-08-28T02:50:20.619Z,1.75
2022-08-28T02:52:47.638Z,1.88
2022-08-28T02:55:17.599Z,2.10
2022-08-28T02:57:46.015Z,2.10
2022-08-28T03:00:17.607Z,1.77
2022-08-28T03:02:46.304Z,2.20
2022-08-28T03:05:15.803Z,2.30
2022-08-28T03:07:42.825Z,2.42
2022-08-28T03:10:10.125Z,2.53
2022-08-28T03:12:38.324Z,1.98
2022-08-28T03:15:07.605Z,2.17
2022-08-28T03:17:36.567Z,2.13
2022-08-28T03:20:06.515Z,2.17
2022-08-28T03:23:02.653Z,2.45
2022-08-28T03:25:30.371Z,2.35
2022-08-28T03:27:57.316Z,2.35
2022-08-28T03:30:24.772Z,2.75
2022-08-28T03:32:51.711Z,2.35
2022-08-28T03:35:18.942Z,2.13
2022-08-28T03:37:45.943Z,2.35
2022-08-28T03:40:13.807Z,2.38
2022-08-28T03:42:41.007Z,2.70
2022-08-28T03:45:10.927Z,2.65
2022-08-28T03:47:38.963Z,2.67
2022-08-28T03:50:08.712Z,2.47
2022-08-28T03:52:39.731Z,2.67
2022-08-28T03:55:09.787Z,3.50
2022-08-28T03:57:37.191Z,3.13
2022-08-28T04:00:06.953Z,2.90
2022-08-28T04:02:40.038Z,3.13
2022-08-28T04:05:07.804Z,3.22
2022-08-28T04:07:35.193Z,2.90
2022-08-28T04:10:02.289Z,3.33
2022-08-28T04:12:29.201Z,3.08
2022-08-28T04:15:02.615Z,3.10
2022-08-28T04:17:29.649Z,3.22
2022-08-28T04:19:56.565Z,3.55
2022-08-28T04:22:23.706Z,3.40
2022-08-28T04:24:50.751Z,2.53
2022-08-28T04:27:17.597Z,2.85
2022-08-28T04:29:44.543Z,3.58
2022-08-28T04:32:11.653Z,3.70
2022-08-28T04:34:39.512Z,3.15
2022-08-28T04:37:06.661Z,3.63
2022-08-28T04:39:34.444Z,3.40
2022-08-28T04:42:01.457Z,2.83
2022-08-28T04:44:28.419Z,2.95
2022-08-28T04:46:55.257Z,3.55
2022-08-28T04:49:25.889Z,3.45
2022-08-28T04:51:54.689Z,3.53
2022-08-28T04:54:21.583Z,3.22
2022-08-28T04:56:48.523Z,3.38
2022-08-28T04:59:16.434Z,3.20
2022-08-28T05:01:43.286Z,3.33
2022-08-28T05:04:11.520Z,3.28
2022-08-28T05:06:46.127Z,3.42
2022-08-28T05:09:18.627Z,3.63
2022-08-28T05:11:46.936Z,3.63
2022-08-28T05:14:16.227Z,3.30
2022-08-28T05:16:49.681Z,3.42
2022-08-28T05:19:18.373Z,3.40
2022-08-28T05:21:45.263Z,3.58
2022-08-28T05:24:13.856Z,3.50
2022-08-28T05:26:41.405Z,3.42
2022-08-28T05:29:10.027Z,4.15
2022-08-28T05:31:39.064Z,3.80
2022-08-28T05:34:07.119Z,3.47
2022-08-28T05:36:37.695Z,3.72
2022-08-28T05:39:07.905Z,2.83
2022-08-28T05:41:35.014Z,3.80
2022-08-28T05:44:12.921Z,3.08
2022-08-28T05:46:42.584Z,3.65
2022-08-28T05:49:10.477Z,3.72
2022-08-28T05:51:40.888Z,3.33
2022-08-28T05:54:08.849Z,3.25
2022-08-28T05:56:38.251Z,3.28
2022-08-28T05:59:06.467Z,3.50
2022-08-28T06:01:37.181Z,3.15
2022-08-28T06:04:08.501Z,3.65
2022-08-28T06:06:37.059Z,3.15
2022-08-28T06:09:17.330Z,3.63
2022-08-28T06:11:46.297Z,3.60
2022-08-28T06:14:17.393Z,3.30
2022-08-28T06:16:50.668Z,3.03
2022-08-28T06:19:18.031Z,3.08
2022-08-28T06:21:46.995Z,3.25
2022-08-28T06:24:14.314Z,3.15
2022-08-28T06:26:41.746Z,3.22
2022-08-28T06:29:11.778Z,3.20
2022-08-28T06:31:39.925Z,2.97
2022-08-28T06:34:07.728Z,3.58
2022-08-28T06:36:37.525Z,3.40
2022-08-28T06:39:06.023Z,3.10
2022-08-28T06:41:35.526Z,3.13
2022-08-28T06:44:03.055Z,3.47
2022-08-28T06:46:30.650Z,3.03
2022-08-28T06:48:57.552Z,2.58
2022-08-28T06:51:25.090Z,3.15
2022-08-28T06:53:52.358Z,3.08
2022-08-28T06:56:26.465Z,2.78
2022-08-28T06:58:56.552Z,3.05
2022-08-28T07:01:33.005Z,3.42
2022-08-28T07:04:09.022Z,2.78
2022-08-28T07:06:39.409Z,3.55
2022-08-28T07:09:08.427Z,3.15
2022-08-28T07:11:36.264Z,2.85
2022-08-28T07:14:05.132Z,2.95
2022-08-28T07:16:35.274Z,3.25
2022-08-28T07:19:05.412Z,2.97
2022-08-28T07:21:38.869Z,2.88
2022-08-28T07:24:07.288Z,2.50
2022-08-28T07:26:34.974Z,3.08
2022-08-28T07:29:09.943Z,2.55
2022-08-28T07:31:41.190Z,2.40
2022-08-28T07:34:09.800Z,2.70
2022-08-28T07:36:37.474Z,3.00
2022-08-28T07:39:05.393Z,2.35
2022-08-28T07:41:35.357Z,2.50
2022-08-28T07:44:20.850Z,2.78
2022-08-28T07:46:48.011Z,2.72
2022-08-28T07:49:18.362Z,2.95
2022-08-28T07:51:45.704Z,3.10
2022-08-28T07:54:17.646Z,2.40
2022-08-28T07:56:45.458Z,2.75
2022-08-28T07:59:13.965Z,1.98
2022-08-28T08:01:46.634Z,2.40
2022-08-28T08:04:16.313Z,2.58
2022-08-28T08:06:44.490Z,2.15
2022-08-28T08:09:14.221Z,2.08
2022-08-28T08:11:42.136Z,2.17
2022-08-28T08:14:09.157Z,2.40
2022-08-28T08:16:39.319Z,2.33
2022-08-28T08:19:09.646Z,2.25
2022-08-28T08:21:37.352Z,2.60
2022-08-28T08:24:04.383Z,2.35
2022-08-28T08:26:31.323Z,2.60
2022-08-28T08:28:58.925Z,2.25
2022-08-28T08:31:29.663Z,2.40
2022-08-28T08:34:02.054Z,2.50
2022-08-28T08:36:30.522Z,2.45
2022-08-28T08:38:59.272Z,2.20
2022-08-28T08:41:31.510Z,2.35
2022-08-28T08:44:23.440Z,2.63
2022-08-28T08:47:13.221Z,2.50
2022-08-28T08:49:48.593Z,3.45
2022-08-28T08:52:26.687Z,2.53
2022-08-28T08:55:21.507Z,2.83
2022-08-28T08:57:53.971Z,2.28
2022-08-28T09:00:21.462Z,2.88
2022-08-28T09:03:04.840Z,2.80
2022-08-28T09:05:55.971Z,2.60
2022-08-28T09:08:36.147Z,2.22
2022-08-28T09:11:18.761Z,2.42
2022-08-28T09:14:04.481Z,2.75
2022-08-28T09:16:44.277Z,3.20
2022-08-28T09:19:15.475Z,2.65
2022-08-28T09:21:45.607Z,2.53
2022-08-28T09:24:32.149Z,2.72
2022-08-28T09:27:23.527Z,2.35
2022-08-28T09:30:07.805Z,3.03
2022-08-28T09:32:39.080Z,2.72
2022-08-28T09:35:16.643Z,2.72
2022-08-28T09:37:44.236Z,2.28
2022-08-28T09:40:19.641Z,2.28
2022-08-28T09:43:28.818Z,2.45
2022-08-28T09:46:22.047Z,2.47
2022-08-28T09:48:53.451Z,3.28
2022-08-28T09:51:20.355Z,2.33
2022-08-28T09:53:53.535Z,2.60
2022-08-28T09:56:33.600Z,2.30
2022-08-28T09:59:34.209Z,2.22
2022-08-28T10:02:10.555Z,2.33
2022-08-28T10:04:55.246Z,3.15
2022-08-28T10:07:54.943Z,2.72
2022-08-28T10:10:35.323Z,2.00
2022-08-28T10:13:05.182Z,2.30
2022-08-28T10:15:55.715Z,2.75
2022-08-28T10:18:34.165Z,2.20
2022-08-28T10:21:26.203Z,2.05
2022-08-28T10:24:31.696Z,2.33
2022-08-28T10:27:25.986Z,2.13
2022-08-28T10:30:12.527Z,2.50
2022-08-28T10:33:00.600Z,2.28
2022-08-28T10:35:44.034Z,2.17
2022-08-28T10:38:28.538Z,2.95
2022-08-28T10:41:06.612Z,2.42
2022-08-28T10:43:43.279Z,1.88
2022-08-28T10:46:15.322Z,2.08
2022-08-28T10:48:50.924Z,2.20
2022-08-28T10:51:34.816Z,2.05
2022-08-28T10:54:25.388Z,1.90
2022-08-28T10:57:08.063Z,2.35
2022-08-28T10:59:41.853Z,1.92
2022-08-28T11:02:13.437Z,2.30
2022-08-28T11:04:40.753Z,2.30
2022-08-28T11:07:14.757Z,2.13
2022-08-28T11:09:47.945Z,1.90
2022-08-28T11:12:20.279Z,2.38
2022-08-28T11:14:51.059Z,2.20
2022-08-28T11:17:27.794Z,2.15
2022-08-28T11:20:36.372Z,2.10
2022-08-28T11:23:24.631Z,2.03
2022-08-28T11:25:58.603Z,2.25
2022-08-28T11:28:25.881Z,2.50
2022-08-28T11:30:58.687Z,2.22
2022-08-28T11:33:37.826Z,1.70
2022-08-28T11:36:32.555Z,2.13
2022-08-28T11:39:13.601Z,2.10
2022-08-28T11:42:09.365Z,1.45
2022-08-28T11:44:42.315Z,2.00
2022-08-28T11:47:47.269Z,2.22
2022-08-28T11:50:25.453Z,2.05
2022-08-28T11:53:17.493Z,2.10
2022-08-28T11:55:50.679Z,1.65
2022-08-28T11:58:50.900Z,1.88
2022-08-28T12:01:31.619Z,1.75
2022-08-28T12:04:07.942Z,2.40
2022-08-28T12:06:52.482Z,2.10
2022-08-28T12:09:44.670Z,2.22
2022-08-28T12:12:21.442Z,1.90
2022-08-28T12:14:48.240Z,2.05
2022-08-28T12:17:21.245Z,1.90
2022-08-28T12:19:56.424Z,1.77
2022-08-28T12:22:27.161Z,2.08
2022-08-28T12:25:01.333Z,1.88
2022-08-28T12:27:29.710Z,1.98
2022-08-28T12:29:59.839Z,1.83
2022-08-28T12:32:56.548Z,1.90
2022-08-28T12:35:29.565Z,2.08
2022-08-28T12:37:57.603Z,1.80
2022-08-28T12:40:47.437Z,2.75
2022-08-28T12:43:40.925Z,1.83
2022-08-28T12:46:19.903Z,1.92
2022-08-28T12:48:56.056Z,1.77
2022-08-28T12:51:25.900Z,1.80
2022-08-28T12:53:55.502Z,1.65
2022-08-28T12:56:25.404Z,1.65
2022-08-28T12:58:53.350Z,1.42
2022-08-28T13:01:33.699Z,2.05
2022-08-28T13:04:17.803Z,1.35
2022-08-28T13:06:45.204Z,1.67
2022-08-28T13:09:21.599Z,1.80
2022-08-28T13:11:51.389Z,1.85
2022-08-28T13:14:37.634Z,1.63
2022-08-28T13:17:05.038Z,1.83
2022-08-28T13:19:33.910Z,1.75
2022-08-28T13:22:04.184Z,1.60
2022-08-28T13:24:30.994Z,1.92
2022-08-28T13:27:18.038Z,1.77
2022-08-28T13:30:00.017Z,1.50
2022-08-28T13:32:30.134Z,1.67
2022-08-28T13:35:30.122Z,1.65
2022-08-28T13:38:18.709Z,1.65
2022-08-28T13:41:00.405Z,1.60
2022-08-28T13:43:30.391Z,1.30
2022-08-28T13:45:58.035Z,1.65
2022-08-28T13:48:27.242Z,1.45
2022-08-28T13:50:59.272Z,2.20
2022-08-28T13:53:26.173Z,1.85
2022-08-28T13:55:53.406Z,1.48
2022-08-28T13:58:20.266Z,1.40
2022-08-28T14:00:50.414Z,1.58
2022-08-28T14:03:35.955Z,1.65
2022-08-28T14:06:11.185Z,1.55
2022-08-28T14:08:39.922Z,1.50
2022-08-28T14:11:07.565Z,2.00
2022-08-28T14:13:35.975Z,1.98
2022-08-28T14:16:07.277Z,1.33
2022-08-28T14:18:34.715Z,1.27
2022-08-28T14:21:05.194Z,1.35
2022-08-28T14:23:33.575Z,1.60
2022-08-28T14:26:00.590Z,1.33
2022-08-28T14:28:27.621Z,1.75
2022-08-28T14:30:54.536Z,1.58
2022-08-28T14:33:21.455Z,1.48
2022-08-28T14:35:50.060Z,1.35
2022-08-28T14:38:17.413Z,1.70
2022-08-28T14:40:45.144Z,1.40
2022-08-28T14:43:13.743Z,1.75
2022-08-28T14:45:49.669Z,1.40
2022-08-28T14:48:18.664Z,1.60
2022-08-28T14:50:48.047Z,1.60
2022-08-28T14:53:17.136Z,1.52
2022-08-28T14:55:46.687Z,1.33
2022-08-28T14:58:15.138Z,2.08
2022-08-28T15:00:52.839Z,1.10
2022-08-28T15:03:20.336Z,1.20
2022-08-28T15:05:47.501Z,1.40
2022-08-28T15:08:16.969Z,1.52
2022-08-28T15:10:44.144Z,1.30
2022-08-28T15:13:12.920Z,1.70
2022-08-28T15:15:42.627Z,2.58
2022-08-28T15:18:10.790Z,2.45
2022-08-28T15:20:39.979Z,2.40
2022-08-28T15:23:07.266Z,2.08
2022-08-28T15:25:34.146Z,1.60
2022-08-28T15:28:01.157Z,1.90
2022-08-28T15:30:28.472Z,1.48
2022-08-28T15:32:55.362Z,2.08
2022-08-28T15:35:22.616Z,1.17
2022-08-28T15:37:49.679Z,1.60
2022-08-28T15:40:35.191Z,1.45
2022-08-28T15:43:02.087Z,1.42
2022-08-28T15:45:29.085Z,1.63
2022-08-28T15:47:58.027Z,1.25
2022-08-28T15:50:24.948Z,1.48
2022-08-28T15:52:53.437Z,2.00
2022-08-28T15:55:20.459Z,1.83
2022-08-28T15:57:47.424Z,1.55
2022-08-28T16:00:14.692Z,1.13
2022-08-28T16:02:41.576Z,1.60
2022-08-28T16:05:09.407Z,1.48
2022-08-28T16:07:36.637Z,1.17
2022-08-28T16:10:08.399Z,1.50
2022-08-28T16:12:39.289Z,1.25
2022-08-28T16:15:07.387Z,1.75
2022-08-28T16:17:34.345Z,1.95
2022-08-28T16:20:01.190Z,1.70
2022-08-28T16:22:28.131Z,1.65
2022-08-28T16:24:54.984Z,1.50
2022-08-28T16:27:22.786Z,1.40
2022-08-28T16:29:49.765Z,1.30
2022-08-28T16:32:20.198Z,1.17
2022-08-28T16:34:48.050Z,1.20
2022-08-28T16:37:18.642Z,1.42
2022-08-28T16:39:47.973Z,1.25
2022-08-28T16:42:15.517Z,1.58
2022-08-28T16:44:42.387Z,1.85
2022-08-28T16:47:09.316Z,1.60
2022-08-28T16:49:36.269Z,1.13
2022-08-28T16:52:03.523Z,1.48
2022-08-28T16:54:30.643Z,1.20
2022-08-28T16:56:57.919Z,1.15
2022-08-28T16:59:24.811Z,1.50
2022-08-28T17:01:53.768Z,1.60
2022-08-28T17:04:22.135Z,1.80
2022-08-28T17:06:49.225Z,2.05
2022-08-28T17:09:16.184Z,1.88
2022-08-28T17:11:43.329Z,1.40
2022-08-28T17:14:12.009Z,1.33
2022-08-28T17:16:39.452Z,1.40
2022-08-28T17:19:06.383Z,1.52
2022-08-28T17:21:51.714Z,1.40
2022-08-28T17:24:19.087Z,1.35
2022-08-28T17:26:46.339Z,1.33
2022-08-28T17:29:13.323Z,1.65
2022-08-28T17:31:41.167Z,1.25
2022-08-28T17:34:08.483Z,1.55
2022-08-28T17:36:38.232Z,1.58
2022-08-28T17:39:09.966Z,1.15
2022-08-28T17:41:37.385Z,1.25
2022-08-28T17:44:05.497Z,1.30
2022-08-28T17:46:37.493Z,1.17
2022-08-28T17:49:07.047Z,1.58
2022-08-28T17:51:43.269Z,1.25
2022-08-28T17:54:17.839Z,1.38
2022-08-28T17:56:45.140Z,1.10
2022-08-28T17:59:13.396Z,1.77
2022-08-28T18:01:42.069Z,1.20
2022-08-28T18:04:09.276Z,1.42
2022-08-28T18:06:36.600Z,2.15
2022-08-28T18:09:05.136Z,1.27
2022-08-28T18:11:32.317Z,1.67
2022-08-28T18:13:59.858Z,1.55
2022-08-28T18:16:31.431Z,1.70
2022-08-28T18:19:00.185Z,1.70
2022-08-28T18:21:27.242Z,1.50
2022-08-28T18:23:54.163Z,1.05
2022-08-28T18:26:21.076Z,1.73
2022-08-28T18:28:48.440Z,1.67
2022-08-28T18:31:15.416Z,1.10
2022-08-28T18:33:42.615Z,1.20
2022-08-28T18:36:12.063Z,1.30
2022-08-28T18:38:39.714Z,1.40
2022-08-28T18:41:07.523Z,1.70
2022-08-28T18:43:35.207Z,1.25
2022-08-28T18:46:04.456Z,1.58
2022-08-28T18:48:32.500Z,1.23
2022-08-28T18:50:59.612Z,1.35
2022-08-28T18:53:27.961Z,1.25
2022-08-28T18:55:56.203Z,1.23
2022-08-28T18:58:26.709Z,1.30
2022-08-28T19:00:54.397Z,1.38
2022-08-28T19:03:22.567Z,1.30
2022-08-28T19:05:49.568Z,1.38
2022-08-28T19:08:16.789Z,1.48
2022-08-28T19:10:43.760Z,1.33
2022-08-28T19:13:10.680Z,1.40
2022-08-28T19:15:38.422Z,1.45
2022-08-28T19:18:05.964Z,1.50
2022-08-28T19:20:33.689Z,1.60
2022-08-28T19:23:00.807Z,1.45
2022-08-28T19:25:30.735Z,1.67
2022-08-28T19:28:01.864Z,1.45
2022-08-28T19:30:33.879Z,2.20
2022-08-28T19:33:03.438Z,1.38
2022-08-28T19:35:30.902Z,1.88
2022-08-28T19:37:57.901Z,1.83
2022-08-28T19:40:24.784Z,1.35
2022-08-28T19:42:51.934Z,1.50
2022-08-28T19:45:19.872Z,2.00
2022-08-28T19:47:47.240Z,1.75
2022-08-28T19:50:15.632Z,1.67
2022-08-28T19:52:43.596Z,5.82
2022-08-28T19:55:22.671Z,8.10
2022-08-28T19:57:49.633Z,6.18
2022-08-28T20:00:20.329Z,4.13
2022-08-28T20:02:48.552Z,4.88
2022-08-28T20:05:16.038Z,4.65
2022-08-28T20:07:43.724Z,5.55
2022-08-28T20:10:12.491Z,3.85
2022-08-28T20:12:40.018Z,3.63
2022-08-28T20:15:16.389Z,3.53
2022-08-28T20:17:43.915Z,4.22
2022-08-28T20:20:20.468Z,3.28
2022-08-28T20:22:47.474Z,3.13
2022-08-28T20:25:15.735Z,3.08
2022-08-28T20:27:42.700Z,3.35
2022-08-28T20:30:11.335Z,3.35
2022-08-28T20:32:40.412Z,3.63
2022-08-28T20:35:11.230Z,2.33
2022-08-28T20:37:44.566Z,2.80
2022-08-28T20:40:18.799Z,2.80
2022-08-28T20:42:46.303Z,2.50
2022-08-28T20:45:15.156Z,2.65
2022-08-28T20:47:42.224Z,2.40
2022-08-28T20:50:09.891Z,2.35
2022-08-28T20:52:37.439Z,2.05
2022-08-28T20:55:07.541Z,2.10
2022-08-28T20:57:34.639Z,2.67
2022-08-28T21:00:05.466Z,1.98
2022-08-28T21:02:33.268Z,2.33
2022-08-28T21:05:01.668Z,2.08
2022-08-28T21:07:28.695Z,1.92
2022-08-28T21:10:07.235Z,2.28
2022-08-28T21:12:38.840Z,2.40
2022-08-28T21:15:11.107Z,2.20
2022-08-28T21:17:39.016Z,2.17
2022-08-28T21:20:10.392Z,1.70
2022-08-28T21:22:37.546Z,1.90
2022-08-28T21:25:06.291Z,1.63
2022-08-28T21:27:33.345Z,1.75
2022-08-28T21:30:00.915Z,1.90
2022-08-28T21:32:29.410Z,2.15
2022-08-28T21:34:56.712Z,1.55
2022-08-28T21:37:23.648Z,1.70
2022-08-28T21:39:50.826Z,1.85
2022-08-28T21:42:17.938Z,1.60
2022-08-28T21:44:51.196Z,2.20
2022-08-28T21:47:19.699Z,2.00
2022-08-28T21:49:49.604Z,1.73
2022-08-28T21:52:18.343Z,1.80
2022-08-28T21:54:45.267Z,1.50
2022-08-28T21:57:12.166Z,1.92
2022-08-28T21:59:39.059Z,2.05
2022-08-28T22:02:06.430Z,1.58
2022-08-28T22:04:33.808Z,1.70
2022-08-28T22:07:00.807Z,2.00
2022-08-28T22:09:28.937Z,2.22
2022-08-28T22:11:55.919Z,1.65
2022-08-28T22:14:24.593Z,1.65
2022-08-28T22:16:51.589Z,1.77
2022-08-28T22:19:18.514Z,2.00
2022-08-28T22:22:03.945Z,1.65
2022-08-28T22:24:30.884Z,1.70
2022-08-28T22:26:57.909Z,1.83
2022-08-28T22:29:25.510Z,1.77
2022-08-28T22:31:52.981Z,1.88
2022-08-28T22:34:20.808Z,1.65
2022-08-28T22:36:47.656Z,1.90
2022-08-28T22:39:14.561Z,1.90
2022-08-28T22:41:42.157Z,1.83
2022-08-28T22:44:10.084Z,1.83
2022-08-28T22:46:37.088Z,1.95
2022-08-28T22:49:04.651Z,1.52
2022-08-28T22:51:34.386Z,1.73
2022-08-28T22:54:01.873Z,2.03
2022-08-28T22:56:28.791Z,1.77
2022-08-28T22:58:55.736Z,1.92
2022-08-28T23:01:24.666Z,1.98
2022-08-28T23:03:51.874Z,2.08
2022-08-28T23:06:21.430Z,2.00
2022-08-28T23:08:48.658Z,1.50
2022-08-28T23:11:15.798Z,1.67
2022-08-28T23:13:42.743Z,1.83
2022-08-28T23:16:09.908Z,2.00
2022-08-28T23:19:04.310Z,1.52
2022-08-28T23:21:26.617Z,1.88
2022-08-28T23:23:53.862Z,2.20
2022-08-28T23:26:21.702Z,2.05
2022-08-28T23:28:48.715Z,1.92
2022-08-28T23:31:15.744Z,1.50
2022-08-28T23:33:43.082Z,1.73
2022-08-28T23:36:10.349Z,1.60
2022-08-28T23:38:40.759Z,2.08
2022-08-28T23:41:11.117Z,1.63
2022-08-28T23:43:38.639Z,2.00
2022-08-28T23:46:06.330Z,1.60
2022-08-28T23:48:33.670Z,1.98
2022-08-28T23:51:02.170Z,1.70
2022-08-28T23:53:29.458Z,1.80
2022-08-28T23:55:59.605Z,1.50
2022-08-28T23:58:31.834Z,1.58
